sensor_id;sensor_type;location;lat;lon;timestamp;P1;durP1;ratioP1;P2;durP2;ratioP2
3847;SDS011;1939;48.720;9.166;2022-07-10T00:01:41;11.47;;;6.03;;
3847;SDS011;1939;48.720;9.166;2022-07-10T00:04:06;10.60;;;6.60;;
3847;SDS011;1939;48.720;9.166;2022-07-10T00:06:31;9.40;;;5.50;;
3847;SDS011;1939;48.720;9.166;2022-07-10T00:08:56;10.43;;;5.37;;
3847;SDS011;1939;48.720;9.166;2022-07-10T00:11:21;6.93;;;5.67;;
3847;SDS011;1939;48.720;9.166;2022-07-10T00:13:47;7.17;;;5.67;;
3847;SDS011;1939;48.720;9.166;2022-07-10T00:16:12;8.83;;;5.40;;
3847;SDS011;1939;48.720;9.166;2022-07-10T00:18:37;6.10;;;4.67;;
3847;SDS011;1939;48.720;9.166;2022-07-10T00:21:02;8.63;;;5.80;;
3847;SDS011;1939;48.720;9.166;2022-07-10T00:23:28;9.63;;;5.87;;
3847;SDS011;1939;48.720;9.166;2022-07-10T00:25:53;8.03;;;5.17;;
3847;SDS011;1939;48.720;9.166;2022-07-10T00:28:19;8.10;;;4.90;;
3847;SDS011;1939;48.720;9.166;2022-07-10T00:30:44;6.53;;;5.57;;
3847;SDS011;1939;48.720;9.166;2022-07-10T00:33:09;12.43;;;5.87;;
3847;SDS011;1939;48.720;9.166;2022-07-10T00:35:35;7.17;;;5.47;;
3847;SDS011;1939;48.720;9.166;2022-07-10T00:38:00;7.27;;;4.77;;
3847;SDS011;1939;48.720;9.166;2022-07-10T00:40:25;12.77;;;5.37;;
3847;SDS011;1939;48.720;9.166;2022-07-10T00:42:51;9.10;;;4.90;;
3847;SDS011;1939;48.720;9.166;2022-07-10T00:45:16;6.00;;;5.40;;
3847;SDS011;1939;48.720;9.166;2022-07-10T00:47:41;7.20;;;6.00;;
3847;SDS011;1939;48.720;9.166;2022-07-10T00:50:07;5.03;;;4.53;;
3847;SDS011;1939;48.720;9.166;2022-07-10T00:52:33;5.40;;;4.77;;
3847;SDS011;1939;48.720;9.166;2022-07-10T00:55:03;7.83;;;5.33;;
3847;SDS011;1939;48.720;9.166;2022-07-10T00:57:29;7.93;;;5.87;;
3847;SDS011;1939;48.720;9.166;2022-07-10T00:59:54;10.80;;;5.20;;
3847;SDS011;1939;48.720;9.166;2022-07-10T01:02:19;8.53;;;4.40;;
3847;SDS011;1939;48.720;9.166;2022-07-10T01:04:45;7.37;;;4.97;;
3847;SDS011;1939;48.720;9.166;2022-07-10T01:07:10;7.33;;;5.57;;
3847;SDS011;1939;48.720;9.166;2022-07-10T01:09:35;6.17;;;5.60;;
3847;SDS011;1939;48.720;9.166;2022-07-10T01:12:02;7.97;;;5.13;;
3847;SDS011;1939;48.720;9.166;2022-07-10T01:14:28;14.37;;;5.73;;
3847;SDS011;1939;48.720;9.166;2022-07-10T01:16:54;6.90;;;5.10;;
3847;SDS011;1939;48.720;9.166;2022-07-10T01:19:19;7.20;;;5.60;;
3847;SDS011;1939;48.720;9.166;2022-07-10T01:21:44;6.87;;;5.80;;
3847;SDS011;1939;48.720;9.166;2022-07-10T01:24:10;9.07;;;5.10;;
3847;SDS011;1939;48.720;9.166;2022-07-10T01:26:36;6.40;;;5.50;;
3847;SDS011;1939;48.720;9.166;2022-07-10T01:29:03;6.43;;;5.83;;
3847;SDS011;1939;48.720;9.166;2022-07-10T01:31:28;9.63;;;5.50;;
3847;SDS011;1939;48.720;9.166;2022-07-10T01:33:54;8.20;;;5.90;;
3847;SDS011;1939;48.720;9.166;2022-07-10T01:36:20;9.17;;;6.40;;
3847;SDS011;1939;48.720;9.166;2022-07-10T01:38:45;7.33;;;5.77;;
3847;SDS011;1939;48.720;9.166;2022-07-10T01:41:10;6.03;;;5.43;;
3847;SDS011;1939;48.720;9.166;2022-07-10T01:43:36;9.00;;;5.90;;
3847;SDS011;1939;48.720;9.166;2022-07-10T01:46:01;7.73;;;5.97;;
3847;SDS011;1939;48.720;9.166;2022-07-10T01:48:27;6.40;;;5.27;;
3847;SDS011;1939;48.720;9.166;2022-07-10T01:50:52;13.00;;;6.50;;
3847;SDS011;1939;48.720;9.166;2022-07-10T01:53:18;8.00;;;6.60;;
3847;SDS011;1939;48.720;9.166;2022-07-10T01:55:43;8.20;;;6.40;;
3847;SDS011;1939;48.720;9.166;2022-07-10T01:58:08;8.77;;;5.90;;
3847;SDS011;1939;48.720;9.166;2022-07-10T02:00:33;10.13;;;6.70;;
3847;SDS011;1939;48.720;9.166;2022-07-10T02:02:59;9.47;;;5.80;;
3847;SDS011;1939;48.720;9.166;2022-07-10T02:05:43;7.10;;;6.50;;
3847;SDS011;1939;48.720;9.166;2022-07-10T02:08:08;9.23;;;6.97;;
3847;SDS011;1939;48.720;9.166;2022-07-10T02:10:33;8.43;;;7.00;;
3847;SDS011;1939;48.720;9.166;2022-07-10T02:12:58;8.90;;;7.27;;
3847;SDS011;1939;48.720;9.166;2022-07-10T02:15:24;10.33;;;8.30;;
3847;SDS011;1939;48.720;9.166;2022-07-10T02:17:49;11.83;;;6.80;;
3847;SDS011;1939;48.720;9.166;2022-07-10T02:20:14;11.40;;;8.03;;
3847;SDS011;1939;48.720;9.166;2022-07-10T02:22:39;13.70;;;8.10;;
3847;SDS011;1939;48.720;9.166;2022-07-10T02:25:04;9.67;;;8.40;;
3847;SDS011;1939;48.720;9.166;2022-07-10T02:27:30;13.10;;;8.83;;
3847;SDS011;1939;48.720;9.166;2022-07-10T02:29:55;13.47;;;9.20;;
3847;SDS011;1939;48.720;9.166;2022-07-10T02:32:20;14.27;;;12.70;;
3847;SDS011;1939;48.720;9.166;2022-07-10T02:34:47;16.83;;;12.50;;
3847;SDS011;1939;48.720;9.166;2022-07-10T02:37:12;21.70;;;15.50;;
3847;SDS011;1939;48.720;9.166;2022-07-10T02:39:37;22.33;;;13.57;;
3847;SDS011;1939;48.720;9.166;2022-07-10T02:42:02;19.87;;;15.43;;
3847;SDS011;1939;48.720;9.166;2022-07-10T02:44:28;25.70;;;16.70;;
3847;SDS011;1939;48.720;9.166;2022-07-10T02:46:54;19.90;;;15.77;;
3847;SDS011;1939;48.720;9.166;2022-07-10T02:49:19;20.80;;;16.77;;
3847;SDS011;1939;48.720;9.166;2022-07-10T02:51:44;23.97;;;15.47;;
3847;SDS011;1939;48.720;9.166;2022-07-10T02:54:09;29.60;;;17.97;;
3847;SDS011;1939;48.720;9.166;2022-07-10T02:56:35;21.07;;;17.20;;
3847;SDS011;1939;48.720;9.166;2022-07-10T02:59:01;22.50;;;17.50;;
3847;SDS011;1939;48.720;9.166;2022-07-10T03:01:26;25.27;;;18.67;;
3847;SDS011;1939;48.720;9.166;2022-07-10T03:03:51;25.63;;;18.27;;
3847;SDS011;1939;48.720;9.166;2022-07-10T03:06:17;24.07;;;16.37;;
3847;SDS011;1939;48.720;9.166;2022-07-10T03:08:42;23.73;;;18.00;;
3847;SDS011;1939;48.720;9.166;2022-07-10T03:11:07;29.37;;;18.93;;
3847;SDS011;1939;48.720;9.166;2022-07-10T03:13:32;25.93;;;18.00;;
3847;SDS011;1939;48.720;9.166;2022-07-10T03:15:58;31.70;;;20.10;;
3847;SDS011;1939;48.720;9.166;2022-07-10T03:18:23;30.47;;;21.00;;
3847;SDS011;1939;48.720;9.166;2022-07-10T03:20:48;26.03;;;18.30;;
3847;SDS011;1939;48.720;9.166;2022-07-10T03:23:13;28.30;;;19.53;;
3847;SDS011;1939;48.720;9.166;2022-07-10T03:25:39;23.47;;;19.27;;
3847;SDS011;1939;48.720;9.166;2022-07-10T03:28:04;27.30;;;20.90;;
3847;SDS011;1939;48.720;9.166;2022-07-10T03:30:29;25.57;;;19.60;;
3847;SDS011;1939;48.720;9.166;2022-07-10T03:32:55;29.07;;;19.80;;
3847;SDS011;1939;48.720;9.166;2022-07-10T03:35:20;28.17;;;19.33;;
3847;SDS011;1939;48.720;9.166;2022-07-10T03:37:45;27.17;;;19.83;;
3847;SDS011;1939;48.720;9.166;2022-07-10T03:40:10;27.80;;;17.70;;
3847;SDS011;1939;48.720;9.166;2022-07-10T03:42:36;27.00;;;18.13;;
3847;SDS011;1939;48.720;9.166;2022-07-10T03:45:01;21.00;;;17.03;;
3847;SDS011;1939;48.720;9.166;2022-07-10T03:47:26;21.17;;;15.10;;
3847;SDS011;1939;48.720;9.166;2022-07-10T03:49:52;20.27;;;16.00;;
3847;SDS011;1939;48.720;9.166;2022-07-10T03:52:17;23.77;;;16.07;;
3847;SDS011;1939;48.720;9.166;2022-07-10T03:54:42;19.53;;;13.87;;
3847;SDS011;1939;48.720;9.166;2022-07-10T03:57:07;20.90;;;14.93;;
3847;SDS011;1939;48.720;9.166;2022-07-10T03:59:51;20.63;;;15.03;;
3847;SDS011;1939;48.720;9.166;2022-07-10T04:02:16;18.00;;;14.00;;
3847;SDS011;1939;48.720;9.166;2022-07-10T04:04:42;21.63;;;14.50;;
3847;SDS011;1939;48.720;9.166;2022-07-10T04:07:07;23.73;;;14.70;;
3847;SDS011;1939;48.720;9.166;2022-07-10T04:09:32;19.47;;;14.33;;
3847;SDS011;1939;48.720;9.166;2022-07-10T04:11:57;25.73;;;14.20;;
3847;SDS011;1939;48.720;9.166;2022-07-10T04:14:23;20.90;;;14.30;;
3847;SDS011;1939;48.720;9.166;2022-07-10T04:16:48;20.90;;;15.63;;
3847;SDS011;1939;48.720;9.166;2022-07-10T04:19:13;18.27;;;15.07;;
3847;SDS011;1939;48.720;9.166;2022-07-10T04:21:38;23.83;;;15.30;;
3847;SDS011;1939;48.720;9.166;2022-07-10T04:24:03;20.57;;;15.37;;
3847;SDS011;1939;48.720;9.166;2022-07-10T04:26:29;19.50;;;15.00;;
3847;SDS011;1939;48.720;9.166;2022-07-10T04:28:54;22.17;;;16.27;;
3847;SDS011;1939;48.720;9.166;2022-07-10T04:31:19;22.50;;;15.53;;
3847;SDS011;1939;48.720;9.166;2022-07-10T04:33:44;22.20;;;15.43;;
3847;SDS011;1939;48.720;9.166;2022-07-10T04:36:10;16.93;;;13.80;;
3847;SDS011;1939;48.720;9.166;2022-07-10T04:38:35;21.27;;;14.40;;
3847;SDS011;1939;48.720;9.166;2022-07-10T04:41:00;17.83;;;12.20;;
3847;SDS011;1939;48.720;9.166;2022-07-10T04:43:25;19.40;;;14.30;;
3847;SDS011;1939;48.720;9.166;2022-07-10T04:45:51;21.63;;;13.57;;
3847;SDS011;1939;48.720;9.166;2022-07-10T04:48:16;18.47;;;14.20;;
3847;SDS011;1939;48.720;9.166;2022-07-10T04:50:41;20.63;;;11.80;;
3847;SDS011;1939;48.720;9.166;2022-07-10T04:53:06;15.27;;;11.90;;
3847;SDS011;1939;48.720;9.166;2022-07-10T04:55:31;18.43;;;11.17;;
3847;SDS011;1939;48.720;9.166;2022-07-10T04:57:57;18.73;;;12.50;;
3847;SDS011;1939;48.720;9.166;2022-07-10T05:00:22;17.33;;;11.10;;
3847;SDS011;1939;48.720;9.166;2022-07-10T05:02:48;12.30;;;10.10;;
3847;SDS011;1939;48.720;9.166;2022-07-10T05:05:13;10.90;;;9.50;;
3847;SDS011;1939;48.720;9.166;2022-07-10T05:07:38;17.40;;;10.97;;
3847;SDS011;1939;48.720;9.166;2022-07-10T05:10:03;10.87;;;9.17;;
3847;SDS011;1939;48.720;9.166;2022-07-10T05:12:29;9.57;;;8.43;;
3847;SDS011;1939;48.720;9.166;2022-07-10T05:14:54;10.97;;;8.60;;
3847;SDS011;1939;48.720;9.166;2022-07-10T05:17:20;18.83;;;8.77;;
3847;SDS011;1939;48.720;9.166;2022-07-10T05:19:45;10.90;;;7.87;;
3847;SDS011;1939;48.720;9.166;2022-07-10T05:22:10;13.20;;;7.50;;
3847;SDS011;1939;48.720;9.166;2022-07-10T05:24:36;18.10;;;9.87;;
3847;SDS011;1939;48.720;9.166;2022-07-10T05:27:01;13.97;;;8.30;;
3847;SDS011;1939;48.720;9.166;2022-07-10T05:29:26;11.20;;;8.70;;
3847;SDS011;1939;48.720;9.166;2022-07-10T05:31:52;16.70;;;8.40;;
3847;SDS011;1939;48.720;9.166;2022-07-10T05:34:17;12.43;;;7.47;;
3847;SDS011;1939;48.720;9.166;2022-07-10T05:36:42;8.73;;;7.83;;
3847;SDS011;1939;48.720;9.166;2022-07-10T05:39:07;9.13;;;7.40;;
3847;SDS011;1939;48.720;9.166;2022-07-10T05:41:32;9.47;;;7.07;;
3847;SDS011;1939;48.720;9.166;2022-07-10T05:43:58;11.00;;;7.17;;
3847;SDS011;1939;48.720;9.166;2022-07-10T05:46:24;8.20;;;6.67;;
3847;SDS011;1939;48.720;9.166;2022-07-10T05:48:49;14.37;;;6.90;;
3847;SDS011;1939;48.720;9.166;2022-07-10T05:51:15;8.47;;;6.90;;
3847;SDS011;1939;48.720;9.166;2022-07-10T05:53:40;10.67;;;6.87;;
3847;SDS011;1939;48.720;9.166;2022-07-10T05:56:05;8.30;;;6.40;;
3847;SDS011;1939;48.720;9.166;2022-07-10T05:58:30;5.07;;;4.50;;
3847;SDS011;1939;48.720;9.166;2022-07-10T06:00:56;8.53;;;5.10;;
3847;SDS011;1939;48.720;9.166;2022-07-10T06:03:21;7.87;;;4.83;;
3847;SDS011;1939;48.720;9.166;2022-07-10T06:05:46;6.50;;;4.90;;
3847;SDS011;1939;48.720;9.166;2022-07-10T06:08:12;8.53;;;5.10;;
3847;SDS011;1939;48.720;9.166;2022-07-10T06:10:37;5.10;;;4.37;;
3847;SDS011;1939;48.720;9.166;2022-07-10T06:13:04;5.83;;;4.03;;
3847;SDS011;1939;48.720;9.166;2022-07-10T06:15:29;5.37;;;3.80;;
3847;SDS011;1939;48.720;9.166;2022-07-10T06:17:57;8.53;;;3.40;;
3847;SDS011;1939;48.720;9.166;2022-07-10T06:20:23;7.23;;;2.90;;
3847;SDS011;1939;48.720;9.166;2022-07-10T06:22:48;4.00;;;2.80;;
3847;SDS011;1939;48.720;9.166;2022-07-10T06:25:14;4.40;;;2.70;;
3847;SDS011;1939;48.720;9.166;2022-07-10T06:27:39;6.53;;;3.17;;
3847;SDS011;1939;48.720;9.166;2022-07-10T06:30:04;6.33;;;2.90;;
3847;SDS011;1939;48.720;9.166;2022-07-10T06:32:30;5.90;;;3.23;;
3847;SDS011;1939;48.720;9.166;2022-07-10T06:34:55;3.83;;;3.40;;
3847;SDS011;1939;48.720;9.166;2022-07-10T06:37:20;3.27;;;2.93;;
3847;SDS011;1939;48.720;9.166;2022-07-10T06:39:46;4.13;;;3.30;;
3847;SDS011;1939;48.720;9.166;2022-07-10T06:42:14;4.73;;;3.67;;
3847;SDS011;1939;48.720;9.166;2022-07-10T06:44:43;6.57;;;3.87;;
3847;SDS011;1939;48.720;9.166;2022-07-10T06:47:09;5.40;;;3.50;;
3847;SDS011;1939;48.720;9.166;2022-07-10T06:49:53;5.57;;;4.00;;
3847;SDS011;1939;48.720;9.166;2022-07-10T06:52:19;7.73;;;3.47;;
3847;SDS011;1939;48.720;9.166;2022-07-10T06:54:44;9.97;;;4.97;;
3847;SDS011;1939;48.720;9.166;2022-07-10T06:57:10;9.60;;;4.07;;
3847;SDS011;1939;48.720;9.166;2022-07-10T06:59:35;5.63;;;3.77;;
3847;SDS011;1939;48.720;9.166;2022-07-10T07:02:00;6.63;;;4.67;;
3847;SDS011;1939;48.720;9.166;2022-07-10T07:04:25;14.93;;;4.20;;
3847;SDS011;1939;48.720;9.166;2022-07-10T07:06:50;8.97;;;3.20;;
3847;SDS011;1939;48.720;9.166;2022-07-10T07:09:16;24.07;;;4.00;;
3847;SDS011;1939;48.720;9.166;2022-07-10T07:11:41;11.30;;;3.47;;
3847;SDS011;1939;48.720;9.166;2022-07-10T07:14:06;5.90;;;3.77;;
3847;SDS011;1939;48.720;9.166;2022-07-10T07:16:31;4.40;;;3.80;;
3847;SDS011;1939;48.720;9.166;2022-07-10T07:19:04;8.93;;;3.00;;
3847;SDS011;1939;48.720;9.166;2022-07-10T07:21:31;9.03;;;3.10;;
3847;SDS011;1939;48.720;9.166;2022-07-10T07:24:14;7.33;;;2.10;;
3847;SDS011;1939;48.720;9.166;2022-07-10T07:26:40;4.73;;;2.20;;
3847;SDS011;1939;48.720;9.166;2022-07-10T07:29:05;2.73;;;2.27;;
3847;SDS011;1939;48.720;9.166;2022-07-10T07:31:30;4.03;;;2.30;;
3847;SDS011;1939;48.720;9.166;2022-07-10T07:33:55;11.17;;;2.60;;
3847;SDS011;1939;48.720;9.166;2022-07-10T07:36:20;8.57;;;3.10;;
3847;SDS011;1939;48.720;9.166;2022-07-10T07:38:46;7.83;;;2.60;;
3847;SDS011;1939;48.720;9.166;2022-07-10T07:41:11;5.23;;;2.93;;
3847;SDS011;1939;48.720;9.166;2022-07-10T07:43:36;7.97;;;3.23;;
3847;SDS011;1939;48.720;9.166;2022-07-10T07:46:01;6.23;;;3.10;;
3847;SDS011;1939;48.720;9.166;2022-07-10T07:48:26;8.00;;;2.73;;
3847;SDS011;1939;48.720;9.166;2022-07-10T07:50:52;5.50;;;3.10;;
3847;SDS011;1939;48.720;9.166;2022-07-10T07:53:17;4.70;;;2.60;;
3847;SDS011;1939;48.720;9.166;2022-07-10T07:55:42;3.70;;;2.63;;
3847;SDS011;1939;48.720;9.166;2022-07-10T07:58:07;6.80;;;2.60;;
3847;SDS011;1939;48.720;9.166;2022-07-10T08:00:33;4.43;;;2.40;;
3847;SDS011;1939;48.720;9.166;2022-07-10T08:02:58;4.10;;;2.10;;
3847;SDS011;1939;48.720;9.166;2022-07-10T08:05:25;3.73;;;2.07;;
3847;SDS011;1939;48.720;9.166;2022-07-10T08:07:51;3.13;;;2.20;;
3847;SDS011;1939;48.720;9.166;2022-07-10T08:10:17;5.50;;;2.60;;
3847;SDS011;1939;48.720;9.166;2022-07-10T08:12:43;8.13;;;2.33;;
3847;SDS011;1939;48.720;9.166;2022-07-10T08:15:10;4.73;;;2.47;;
3847;SDS011;1939;48.720;9.166;2022-07-10T08:17:36;10.30;;;4.90;;
3847;SDS011;1939;48.720;9.166;2022-07-10T08:20:02;4.97;;;2.53;;
3847;SDS011;1939;48.720;9.166;2022-07-10T08:22:27;5.20;;;2.53;;
3847;SDS011;1939;48.720;9.166;2022-07-10T08:24:52;2.30;;;1.70;;
3847;SDS011;1939;48.720;9.166;2022-07-10T08:27:18;3.43;;;1.90;;
3847;SDS011;1939;48.720;9.166;2022-07-10T08:29:43;12.40;;;6.50;;
3847;SDS011;1939;48.720;9.166;2022-07-10T08:32:08;4.10;;;2.40;;
3847;SDS011;1939;48.720;9.166;2022-07-10T08:34:34;4.40;;;2.07;;
3847;SDS011;1939;48.720;9.166;2022-07-10T08:37:00;4.97;;;1.83;;
3847;SDS011;1939;48.720;9.166;2022-07-10T08:39:25;3.23;;;1.50;;
3847;SDS011;1939;48.720;9.166;2022-07-10T08:41:51;3.23;;;1.20;;
3847;SDS011;1939;48.720;9.166;2022-07-10T08:44:16;1.87;;;1.20;;
3847;SDS011;1939;48.720;9.166;2022-07-10T08:46:42;4.00;;;1.20;;
3847;SDS011;1939;48.720;9.166;2022-07-10T08:49:08;1.83;;;1.63;;
3847;SDS011;1939;48.720;9.166;2022-07-10T08:51:36;2.60;;;1.63;;
3847;SDS011;1939;48.720;9.166;2022-07-10T08:54:03;3.00;;;1.40;;
3847;SDS011;1939;48.720;9.166;2022-07-10T08:56:29;4.40;;;1.20;;
3847;SDS011;1939;48.720;9.166;2022-07-10T08:58:54;2.60;;;1.60;;
3847;SDS011;1939;48.720;9.166;2022-07-10T09:01:20;4.17;;;1.90;;
3847;SDS011;1939;48.720;9.166;2022-07-10T09:03:48;4.07;;;1.90;;
3847;SDS011;1939;48.720;9.166;2022-07-10T09:06:14;2.53;;;2.00;;
3847;SDS011;1939;48.720;9.166;2022-07-10T09:08:44;9.13;;;1.80;;
3847;SDS011;1939;48.720;9.166;2022-07-10T09:11:21;6.80;;;2.10;;
3847;SDS011;1939;48.720;9.166;2022-07-10T09:13:52;4.70;;;1.77;;
3847;SDS011;1939;48.720;9.166;2022-07-10T09:16:21;3.67;;;1.97;;
3847;SDS011;1939;48.720;9.166;2022-07-10T09:18:46;5.53;;;2.57;;
3847;SDS011;1939;48.720;9.166;2022-07-10T09:21:12;4.37;;;2.43;;
3847;SDS011;1939;48.720;9.166;2022-07-10T09:23:37;3.70;;;2.10;;
3847;SDS011;1939;48.720;9.166;2022-07-10T09:26:03;5.50;;;2.00;;
3847;SDS011;1939;48.720;9.166;2022-07-10T09:28:29;4.30;;;2.43;;
3847;SDS011;1939;48.720;9.166;2022-07-10T09:30:54;4.13;;;2.20;;
3847;SDS011;1939;48.720;9.166;2022-07-10T09:33:21;2.57;;;1.87;;
3847;SDS011;1939;48.720;9.166;2022-07-10T09:36:09;2.40;;;2.20;;
3847;SDS011;1939;48.720;9.166;2022-07-10T09:41:17;3.50;;;1.73;;
3847;SDS011;1939;48.720;9.166;2022-07-10T09:43:44;4.00;;;1.80;;
3847;SDS011;1939;48.720;9.166;2022-07-10T09:46:10;3.63;;;1.93;;
3847;SDS011;1939;48.720;9.166;2022-07-10T09:48:35;4.23;;;1.80;;
3847;SDS011;1939;48.720;9.166;2022-07-10T09:51:00;4.57;;;2.20;;
3847;SDS011;1939;48.720;9.166;2022-07-10T09:53:26;3.00;;;1.60;;
3847;SDS011;1939;48.720;9.166;2022-07-10T09:55:52;1.60;;;1.30;;
3847;SDS011;1939;48.720;9.166;2022-07-10T09:58:18;5.07;;;2.03;;
3847;SDS011;1939;48.720;9.166;2022-07-10T10:00:45;2.33;;;1.97;;
3847;SDS011;1939;48.720;9.166;2022-07-10T10:03:11;4.13;;;1.67;;
3847;SDS011;1939;48.720;9.166;2022-07-10T10:05:43;5.00;;;1.63;;
3847;SDS011;1939;48.720;9.166;2022-07-10T10:08:15;5.37;;;1.67;;
3847;SDS011;1939;48.720;9.166;2022-07-10T10:10:47;2.83;;;1.80;;
3847;SDS011;1939;48.720;9.166;2022-07-10T10:13:23;2.80;;;1.43;;
3847;SDS011;1939;48.720;9.166;2022-07-10T10:15:50;6.93;;;1.83;;
3847;SDS011;1939;48.720;9.166;2022-07-10T10:18:19;4.00;;;1.73;;
3847;SDS011;1939;48.720;9.166;2022-07-10T10:20:45;1.63;;;1.50;;
3847;SDS011;1939;48.720;9.166;2022-07-10T10:23:17;5.30;;;1.80;;
3847;SDS011;1939;48.720;9.166;2022-07-10T10:25:45;5.73;;;1.73;;
3847;SDS011;1939;48.720;9.166;2022-07-10T10:28:11;1.93;;;1.77;;
3847;SDS011;1939;48.720;9.166;2022-07-10T10:30:38;3.70;;;2.00;;
3847;SDS011;1939;48.720;9.166;2022-07-10T10:33:32;2.70;;;1.63;;
3847;SDS011;1939;48.720;9.166;2022-07-10T10:35:49;6.30;;;1.73;;
3847;SDS011;1939;48.720;9.166;2022-07-10T10:38:14;3.33;;;1.53;;
3847;SDS011;1939;48.720;9.166;2022-07-10T10:40:40;2.53;;;1.60;;
3847;SDS011;1939;48.720;9.166;2022-07-10T10:43:22;5.30;;;2.07;;
3847;SDS011;1939;48.720;9.166;2022-07-10T10:45:50;2.77;;;1.73;;
3847;SDS011;1939;48.720;9.166;2022-07-10T10:48:17;4.20;;;1.37;;
3847;SDS011;1939;48.720;9.166;2022-07-10T10:50:52;1.97;;;1.60;;
3847;SDS011;1939;48.720;9.166;2022-07-10T10:53:18;2.17;;;1.63;;
3847;SDS011;1939;48.720;9.166;2022-07-10T10:58:24;2.20;;;2.00;;
3847;SDS011;1939;48.720;9.166;2022-07-10T11:00:50;4.50;;;1.50;;
3847;SDS011;1939;48.720;9.166;2022-07-10T11:03:19;7.13;;;2.20;;
3847;SDS011;1939;48.720;9.166;2022-07-10T11:05:45;3.17;;;1.50;;
3847;SDS011;1939;48.720;9.166;2022-07-10T11:08:11;5.40;;;1.83;;
3847;SDS011;1939;48.720;9.166;2022-07-10T11:10:37;8.03;;;1.90;;
3847;SDS011;1939;48.720;9.166;2022-07-10T11:13:03;3.03;;;1.90;;
3847;SDS011;1939;48.720;9.166;2022-07-10T11:15:30;4.07;;;2.40;;
3847;SDS011;1939;48.720;9.166;2022-07-10T11:17:56;3.40;;;1.63;;
3847;SDS011;1939;48.720;9.166;2022-07-10T11:20:21;2.63;;;2.40;;
3847;SDS011;1939;48.720;9.166;2022-07-10T11:25:29;2.60;;;2.30;;
3847;SDS011;1939;48.720;9.166;2022-07-10T11:28:04;2.67;;;1.67;;
3847;SDS011;1939;48.720;9.166;2022-07-10T11:30:45;3.17;;;1.90;;
3847;SDS011;1939;48.720;9.166;2022-07-10T11:33:11;4.03;;;2.10;;
3847;SDS011;1939;48.720;9.166;2022-07-10T11:35:37;5.73;;;1.80;;
3847;SDS011;1939;48.720;9.166;2022-07-10T11:38:03;4.03;;;1.60;;
3847;SDS011;1939;48.720;9.166;2022-07-10T11:40:28;3.30;;;1.80;;
3847;SDS011;1939;48.720;9.166;2022-07-10T11:42:56;1.70;;;1.60;;
3847;SDS011;1939;48.720;9.166;2022-07-10T11:45:23;2.97;;;1.30;;
3847;SDS011;1939;48.720;9.166;2022-07-10T11:47:49;2.80;;;1.67;;
3847;SDS011;1939;48.720;9.166;2022-07-10T11:50:14;6.07;;;1.60;;
3847;SDS011;1939;48.720;9.166;2022-07-10T11:52:40;2.80;;;1.97;;
3847;SDS011;1939;48.720;9.166;2022-07-10T11:55:15;5.40;;;1.47;;
3847;SDS011;1939;48.720;9.166;2022-07-10T11:57:41;3.03;;;1.60;;
3847;SDS011;1939;48.720;9.166;2022-07-10T12:00:06;3.30;;;1.27;;
3847;SDS011;1939;48.720;9.166;2022-07-10T12:02:32;3.50;;;2.33;;
3847;SDS011;1939;48.720;9.166;2022-07-10T12:04:58;2.60;;;1.40;;
3847;SDS011;1939;48.720;9.166;2022-07-10T12:07:23;2.10;;;1.27;;
3847;SDS011;1939;48.720;9.166;2022-07-10T12:09:54;1.80;;;1.10;;
3847;SDS011;1939;48.720;9.166;2022-07-10T12:12:22;3.33;;;1.47;;
3847;SDS011;1939;48.720;9.166;2022-07-10T12:14:47;8.00;;;1.40;;
3847;SDS011;1939;48.720;9.166;2022-07-10T12:17:13;1.57;;;0.97;;
3847;SDS011;1939;48.720;9.166;2022-07-10T12:19:38;3.10;;;2.00;;
3847;SDS011;1939;48.720;9.166;2022-07-10T12:22:04;2.73;;;1.23;;
3847;SDS011;1939;48.720;9.166;2022-07-10T12:24:30;4.50;;;1.40;;
3847;SDS011;1939;48.720;9.166;2022-07-10T12:26:55;1.90;;;1.23;;
3847;SDS011;1939;48.720;9.166;2022-07-10T12:29:21;3.27;;;1.47;;
3847;SDS011;1939;48.720;9.166;2022-07-10T12:31:47;3.63;;;1.40;;
3847;SDS011;1939;48.720;9.166;2022-07-10T12:34:13;1.93;;;1.47;;
3847;SDS011;1939;48.720;9.166;2022-07-10T12:36:42;5.93;;;3.40;;
3847;SDS011;1939;48.720;9.166;2022-07-10T12:39:08;2.93;;;2.13;;
3847;SDS011;1939;48.720;9.166;2022-07-10T12:41:34;2.40;;;1.03;;
3847;SDS011;1939;48.720;9.166;2022-07-10T12:44:00;3.47;;;1.13;;
3847;SDS011;1939;48.720;9.166;2022-07-10T12:46:25;2.17;;;1.10;;
3847;SDS011;1939;48.720;9.166;2022-07-10T12:49:03;3.73;;;1.17;;
3847;SDS011;1939;48.720;9.166;2022-07-10T12:51:30;4.27;;;1.37;;
3847;SDS011;1939;48.720;9.166;2022-07-10T12:53:55;2.20;;;1.20;;
3847;SDS011;1939;48.720;9.166;2022-07-10T12:56:30;1.67;;;0.87;;
3847;SDS011;1939;48.720;9.166;2022-07-10T12:58:56;2.90;;;1.30;;
3847;SDS011;1939;48.720;9.166;2022-07-10T13:01:21;3.03;;;1.17;;
3847;SDS011;1939;48.720;9.166;2022-07-10T13:03:47;2.10;;;1.00;;
3847;SDS011;1939;48.720;9.166;2022-07-10T13:06:31;2.43;;;1.00;;
3847;SDS011;1939;48.720;9.166;2022-07-10T13:08:56;1.57;;;1.03;;
3847;SDS011;1939;48.720;9.166;2022-07-10T13:11:22;2.00;;;1.07;;
3847;SDS011;1939;48.720;9.166;2022-07-10T13:13:47;2.37;;;0.90;;
3847;SDS011;1939;48.720;9.166;2022-07-10T13:16:13;1.10;;;0.80;;
3847;SDS011;1939;48.720;9.166;2022-07-10T13:18:38;3.90;;;1.33;;
3847;SDS011;1939;48.720;9.166;2022-07-10T13:21:06;1.33;;;0.90;;
3847;SDS011;1939;48.720;9.166;2022-07-10T13:23:32;2.77;;;1.27;;
3847;SDS011;1939;48.720;9.166;2022-07-10T13:25:57;5.23;;;1.10;;
3847;SDS011;1939;48.720;9.166;2022-07-10T13:28:27;1.20;;;0.70;;
3847;SDS011;1939;48.720;9.166;2022-07-10T13:30:53;3.50;;;1.20;;
3847;SDS011;1939;48.720;9.166;2022-07-10T13:33:18;1.73;;;1.10;;
3847;SDS011;1939;48.720;9.166;2022-07-10T13:35:44;1.60;;;1.00;;
3847;SDS011;1939;48.720;9.166;2022-07-10T13:38:09;4.00;;;0.87;;
3847;SDS011;1939;48.720;9.166;2022-07-10T13:40:35;1.43;;;0.70;;
3847;SDS011;1939;48.720;9.166;2022-07-10T13:43:00;2.87;;;2.10;;
3847;SDS011;1939;48.720;9.166;2022-07-10T13:45:26;2.40;;;0.80;;
3847;SDS011;1939;48.720;9.166;2022-07-10T13:47:55;1.90;;;0.80;;
3847;SDS011;1939;48.720;9.166;2022-07-10T13:50:20;1.90;;;0.80;;
3847;SDS011;1939;48.720;9.166;2022-07-10T13:52:46;3.20;;;1.20;;
3847;SDS011;1939;48.720;9.166;2022-07-10T13:55:11;1.77;;;1.00;;
3847;SDS011;1939;48.720;9.166;2022-07-10T13:57:37;7.70;;;1.10;;
3847;SDS011;1939;48.720;9.166;2022-07-10T14:00:02;3.30;;;1.20;;
3847;SDS011;1939;48.720;9.166;2022-07-10T14:02:27;1.67;;;1.00;;
3847;SDS011;1939;48.720;9.166;2022-07-10T14:04:52;3.43;;;1.37;;
3847;SDS011;1939;48.720;9.166;2022-07-10T14:07:18;4.43;;;1.10;;
3847;SDS011;1939;48.720;9.166;2022-07-10T14:09:43;3.27;;;0.77;;
3847;SDS011;1939;48.720;9.166;2022-07-10T14:12:08;4.00;;;1.80;;
3847;SDS011;1939;48.720;9.166;2022-07-10T14:14:34;4.70;;;1.10;;
3847;SDS011;1939;48.720;9.166;2022-07-10T14:16:59;1.77;;;1.10;;
3847;SDS011;1939;48.720;9.166;2022-07-10T14:19:24;2.10;;;0.70;;
3847;SDS011;1939;48.720;9.166;2022-07-10T14:21:49;2.33;;;1.10;;
3847;SDS011;1939;48.720;9.166;2022-07-10T14:24:14;2.20;;;1.63;;
3847;SDS011;1939;48.720;9.166;2022-07-10T14:26:40;4.53;;;1.23;;
3847;SDS011;1939;48.720;9.166;2022-07-10T14:29:05;3.03;;;1.30;;
3847;SDS011;1939;48.720;9.166;2022-07-10T14:31:30;2.13;;;1.20;;
3847;SDS011;1939;48.720;9.166;2022-07-10T14:33:56;1.30;;;0.60;;
3847;SDS011;1939;48.720;9.166;2022-07-10T14:36:21;4.40;;;1.00;;
3847;SDS011;1939;48.720;9.166;2022-07-10T14:38:53;5.47;;;1.10;;
3847;SDS011;1939;48.720;9.166;2022-07-10T14:41:18;1.47;;;0.97;;
3847;SDS011;1939;48.720;9.166;2022-07-10T14:43:44;3.53;;;0.97;;
3847;SDS011;1939;48.720;9.166;2022-07-10T14:46:09;1.83;;;1.00;;
3847;SDS011;1939;48.720;9.166;2022-07-10T14:48:34;5.23;;;1.00;;
3847;SDS011;1939;48.720;9.166;2022-07-10T14:51:01;6.17;;;1.67;;
3847;SDS011;1939;48.720;9.166;2022-07-10T14:53:26;2.63;;;1.23;;
3847;SDS011;1939;48.720;9.166;2022-07-10T14:55:51;3.67;;;1.10;;
3847;SDS011;1939;48.720;9.166;2022-07-10T14:58:17;3.30;;;1.10;;
3847;SDS011;1939;48.720;9.166;2022-07-10T15:00:42;3.47;;;1.60;;
3847;SDS011;1939;48.720;9.166;2022-07-10T15:03:07;3.50;;;1.13;;
3847;SDS011;1939;48.720;9.166;2022-07-10T15:05:32;1.97;;;1.07;;
3847;SDS011;1939;48.720;9.166;2022-07-10T15:07:58;6.53;;;1.40;;
3847;SDS011;1939;48.720;9.166;2022-07-10T15:10:24;2.00;;;1.47;;
3847;SDS011;1939;48.720;9.166;2022-07-10T15:12:49;3.40;;;1.43;;